createdAt,value
2018-04-06T00:00:44.133Z,21.40
2018-04-06T00:03:11.607Z,21.30
2018-04-06T00:05:39.047Z,21.30
2018-04-06T00:08:06.539Z,21.30
2018-04-06T00:10:33.995Z,21.30
2018-04-06T00:13:01.459Z,21.30
2018-04-06T00:15:28.908Z,21.30
2018-04-06T00:17:56.347Z,21.20
2018-04-06T00:20:24.651Z,21.20
2018-04-06T00:22:52.134Z,21.20
2018-04-06T00:25:19.586Z,21.20
2018-04-06T00:27:47.043Z,21.10
2018-04-06T00:30:14.492Z,21.10
2018-04-06T00:32:41.946Z,21.10
2018-04-06T00:35:10.158Z,21.10
2018-04-06T00:37:37.606Z,21.00
2018-04-06T00:40:05.086Z,21.10
2018-04-06T00:42:32.650Z,21.10
2018-04-06T00:45:00.083Z,21.10
2018-04-06T00:47:27.629Z,21.00
2018-04-06T00:49:55.030Z,21.00
2018-04-06T00:52:22.488Z,21.00
2018-04-06T00:54:49.922Z,21.00
2018-04-06T00:57:18.139Z,21.00
2018-04-06T00:59:45.602Z,20.90
2018-04-06T01:02:13.057Z,20.90
2018-04-06T01:04:40.644Z,20.90
2018-04-06T01:07:08.075Z,20.90
2018-04-06T01:09:35.506Z,20.90
2018-04-06T01:12:03.026Z,20.90
2018-04-06T01:14:30.497Z,20.90
2018-04-06T01:16:57.943Z,20.90
2018-04-06T01:19:25.406Z,20.90
2018-04-06T01:21:52.882Z,20.90
2018-04-06T01:24:20.451Z,20.90
2018-04-06T01:26:47.888Z,20.80
2018-04-06T01:29:15.338Z,20.80
2018-04-06T01:31:42.797Z,20.80
2018-04-06T01:34:11.017Z,20.80
2018-04-06T01:36:38.489Z,20.70
2018-04-06T01:39:05.923Z,20.70
2018-04-06T01:41:33.412Z,20.70
2018-04-06T01:44:00.875Z,20.70
2018-04-06T01:46:28.314Z,20.70
2018-04-06T01:48:55.771Z,20.70
2018-04-06T01:51:23.226Z,20.70
2018-04-06T01:53:50.667Z,20.70
2018-04-06T01:56:18.123Z,20.70
2018-04-06T01:58:45.587Z,20.70
2018-04-06T02:01:13.791Z,20.60
2018-04-06T02:03:42.112Z,20.60
2018-04-06T02:06:09.566Z,20.60
2018-04-06T02:08:37.047Z,20.60
2018-04-06T02:11:04.475Z,20.60
2018-04-06T02:13:31.963Z,20.60
2018-04-06T02:15:59.406Z,20.60
2018-04-06T02:18:26.854Z,20.60
2018-04-06T02:20:54.315Z,20.60
2018-04-06T02:23:22.527Z,20.60
2018-04-06T02:25:49.979Z,20.50
2018-04-06T02:28:17.423Z,20.50
2018-04-06T02:30:45.646Z,20.60
2018-04-06T02:33:13.098Z,20.50
2018-04-06T02:35:40.560Z,20.50
2018-04-06T02:38:08.027Z,20.50
2018-04-06T02:40:35.487Z,20.50
2018-04-06T02:43:02.934Z,20.50
2018-04-06T02:45:30.423Z,20.50
2018-04-06T02:47:57.856Z,20.50
2018-04-06T02:50:25.309Z,20.50
2018-04-06T02:52:53.511Z,20.50
2018-04-06T02:55:20.966Z,20.40
2018-04-06T02:57:48.435Z,20.50
2018-04-06T03:00:15.891Z,20.40
2018-04-06T03:02:43.348Z,20.40
2018-04-06T03:05:10.790Z,20.40
2018-04-06T03:07:39.013Z,20.40
2018-04-06T03:10:06.485Z,20.40
2018-04-06T03:12:33.939Z,20.40
2018-04-06T03:15:01.387Z,20.40
2018-04-06T03:17:28.843Z,20.40
2018-04-06T03:19:56.280Z,20.40
2018-04-06T03:22:24.494Z,20.30
2018-04-06T03:24:51.953Z,20.30
2018-04-06T03:27:19.390Z,20.30
2018-04-06T03:29:47.612Z,20.30
2018-04-06T03:32:15.043Z,20.30
2018-04-06T03:34:43.262Z,20.30
2018-04-06T03:37:10.726Z,20.30
2018-04-06T03:39:38.178Z,20.30
2018-04-06T03:42:05.650Z,20.30
2018-04-06T03:44:33.081Z,20.30
2018-04-06T03:47:00.534Z,20.30
2018-04-06T03:49:28.763Z,20.30
2018-04-06T03:51:56.227Z,20.20
2018-04-06T03:54:23.678Z,20.30
2018-04-06T03:56:51.152Z,20.30
2018-04-06T03:59:18.673Z,20.30
2018-04-06T04:01:46.898Z,20.30
2018-04-06T04:04:14.359Z,20.20
2018-04-06T04:06:41.927Z,20.30
2018-04-06T04:09:09.493Z,20.30
2018-04-06T04:11:36.955Z,20.20
2018-04-06T04:14:04.407Z,20.20
2018-04-06T04:16:31.860Z,20.20
2018-04-06T04:18:59.316Z,20.20
2018-04-06T04:21:26.803Z,20.20
2018-04-06T04:23:54.371Z,20.10
2018-04-06T04:26:21.808Z,20.10
2018-04-06T04:28:49.247Z,20.10
2018-04-06T04:31:16.703Z,20.10
2018-04-06T04:33:44.937Z,20.10
2018-04-06T04:36:12.390Z,20.00
2018-04-06T04:38:39.866Z,20.10
2018-04-06T04:41:07.327Z,20.10
2018-04-06T04:43:34.786Z,20.10
2018-04-06T04:46:02.221Z,20.10
2018-04-06T04:48:29.680Z,20.20
2018-04-06T04:50:57.895Z,20.30
2018-04-06T04:53:25.337Z,20.30
2018-04-06T04:55:52.782Z,20.40
2018-04-06T04:58:21.002Z,20.60
2018-04-06T05:00:48.464Z,20.50
2018-04-06T05:03:15.931Z,20.70
2018-04-06T05:05:43.370Z,20.80
2018-04-06T05:08:10.843Z,20.90
2018-04-06T05:10:38.285Z,21.00
2018-04-06T05:13:06.481Z,21.20
2018-04-06T05:15:33.936Z,21.10
2018-04-06T05:18:01.427Z,21.30
2018-04-06T05:20:28.991Z,21.30
2018-04-06T05:22:56.427Z,21.40
2018-04-06T05:25:23.884Z,21.50
2018-04-06T05:27:51.323Z,21.60
2018-04-06T05:30:18.852Z,21.70
2018-04-06T05:32:46.411Z,21.80
2018-04-06T05:35:13.862Z,21.90
2018-04-06T05:37:41.307Z,21.90
2018-04-06T05:40:08.762Z,22.00
2018-04-06T05:42:36.266Z,22.10
2018-04-06T05:45:03.716Z,22.20
2018-04-06T05:47:31.167Z,22.30
2018-04-06T05:49:58.629Z,22.30
2018-04-06T05:52:26.088Z,22.40
2018-04-06T05:54:53.548Z,22.40
2018-04-06T05:57:21.048Z,22.40
2018-04-06T05:59:48.509Z,22.20
2018-04-06T06:02:15.963Z,21.90
2018-04-06T06:04:43.439Z,21.80
2018-04-06T06:07:10.899Z,21.80
2018-04-06T06:09:38.367Z,21.90
2018-04-06T06:12:05.806Z,21.90
2018-04-06T06:14:33.365Z,22.00
2018-04-06T06:17:00.828Z,22.00
2018-04-06T06:19:28.285Z,22.10
2018-04-06T06:21:55.779Z,22.10
2018-04-06T06:24:23.252Z,22.10
2018-04-06T06:26:50.700Z,22.00
2018-04-06T06:29:18.167Z,22.00
2018-04-06T06:31:45.583Z,22.00
2018-04-06T06:34:13.786Z,22.00
2018-04-06T06:36:41.250Z,22.00
2018-04-06T06:39:08.737Z,22.00
2018-04-06T06:41:36.196Z,22.00
2018-04-06T06:44:03.766Z,22.00
2018-04-06T06:46:31.251Z,22.00
2018-04-06T06:48:58.718Z,22.10
2018-04-06T06:51:26.235Z,22.20
2018-04-06T06:53:53.672Z,22.10
2018-04-06T06:56:21.900Z,22.00
2018-04-06T06:58:49.467Z,22.00
2018-04-06T07:01:16.900Z,22.00
2018-04-06T07:03:44.378Z,22.10
2018-04-06T07:06:11.815Z,22.30
2018-04-06T07:08:40.139Z,22.40
2018-04-06T07:11:07.590Z,22.40
2018-04-06T07:13:35.210Z,22.50
2018-04-06T07:16:02.643Z,22.60
2018-04-06T07:18:30.191Z,22.70
2018-04-06T07:20:57.649Z,22.70
2018-04-06T07:23:25.119Z,22.80
2018-04-06T07:25:52.587Z,22.90
2018-04-06T07:28:20.040Z,22.90
2018-04-06T07:30:47.485Z,22.90
2018-04-06T07:33:15.299Z,23.00
2018-04-06T07:35:42.850Z,23.00
2018-04-06T07:38:10.286Z,22.90
2018-04-06T07:40:37.760Z,22.70
2018-04-06T07:43:05.238Z,22.60
2018-04-06T07:45:32.665Z,22.50
2018-04-06T07:48:00.119Z,22.40
2018-04-06T07:50:28.320Z,22.30
2018-04-06T07:52:55.803Z,22.30
2018-04-06T07:55:23.271Z,22.30
2018-04-06T07:57:50.728Z,22.30
2018-04-06T08:00:18.191Z,22.20
2018-04-06T08:02:45.759Z,22.20
2018-04-06T08:05:13.198Z,22.40
2018-04-06T08:07:40.669Z,22.50
2018-04-06T08:10:08.107Z,22.70
2018-04-06T08:12:36.313Z,22.80
2018-04-06T08:15:03.813Z,22.80
2018-04-06T08:17:31.237Z,22.80
2018-04-06T08:19:58.714Z,22.90
2018-04-06T08:22:26.163Z,22.90
2018-04-06T08:24:53.654Z,23.00
2018-04-06T08:27:21.208Z,23.10
2018-04-06T08:29:48.678Z,23.10
2018-04-06T08:32:16.117Z,23.10
2018-04-06T08:34:43.578Z,23.20
2018-04-06T08:37:11.008Z,23.20
2018-04-06T08:39:39.239Z,23.30
2018-04-06T08:42:06.709Z,23.20
2018-04-06T08:44:34.166Z,23.30
2018-04-06T08:47:01.632Z,23.40
2018-04-06T08:49:29.080Z,23.40
2018-04-06T08:51:56.582Z,23.50
2018-04-06T08:54:24.022Z,23.50
2018-04-06T08:56:51.587Z,23.50
2018-04-06T08:59:19.027Z,23.60
2018-04-06T09:01:46.510Z,23.50
2018-04-06T09:04:13.953Z,23.30
2018-04-06T09:06:41.403Z,23.30
2018-04-06T09:09:08.845Z,23.40
2018-04-06T09:11:37.090Z,23.40
2018-04-06T09:14:04.659Z,23.40
2018-04-06T09:16:32.091Z,23.40
2018-04-06T09:18:59.551Z,23.50
2018-04-06T09:21:27.013Z,23.40
2018-04-06T09:23:54.494Z,23.40
2018-04-06T09:26:21.955Z,23.40
2018-04-06T09:28:49.411Z,23.50
2018-04-06T09:31:16.865Z,23.40
2018-04-06T09:33:44.346Z,23.30
2018-04-06T09:36:11.896Z,23.30
2018-04-06T09:38:39.319Z,23.20
2018-04-06T09:41:06.843Z,23.20
2018-04-06T09:43:35.129Z,23.20
2018-04-06T09:46:02.591Z,23.10
2018-04-06T09:48:30.030Z,23.30
2018-04-06T09:50:57.515Z,23.30
2018-04-06T09:53:24.948Z,23.40
2018-04-06T09:55:52.441Z,23.50
2018-04-06T09:58:19.877Z,23.50
2018-04-06T10:00:47.331Z,23.50
2018-04-06T10:03:14.834Z,23.40
2018-04-06T10:05:42.293Z,23.50
2018-04-06T10:08:09.770Z,23.50
2018-04-06T10:10:37.239Z,23.50
2018-04-06T10:13:04.688Z,23.60
2018-04-06T10:15:32.130Z,23.60
2018-04-06T10:17:59.584Z,23.60
2018-04-06T10:20:27.033Z,23.60
2018-04-06T10:22:55.264Z,23.70
2018-04-06T10:25:23.686Z,23.60
2018-04-06T10:27:51.947Z,23.50
2018-04-06T10:30:19.487Z,23.40
2018-04-06T10:32:46.952Z,23.20
2018-04-06T10:35:14.434Z,23.30
2018-04-06T10:37:41.847Z,23.30
2018-04-06T10:40:09.338Z,23.40
2018-04-06T10:42:36.773Z,23.40
2018-04-06T10:45:04.227Z,23.40
2018-04-06T10:47:32.438Z,22.80
2018-04-06T10:50:00.034Z,22.70
2018-04-06T10:52:27.462Z,22.80
2018-04-06T10:54:54.931Z,23.00
2018-04-06T10:57:22.375Z,23.10
2018-04-06T10:59:49.866Z,23.20
2018-04-06T11:02:17.325Z,23.20
2018-04-06T11:04:44.795Z,23.20
2018-04-06T11:07:12.253Z,23.20
2018-04-06T11:09:39.690Z,23.30
2018-04-06T11:12:07.147Z,23.30
2018-04-06T11:14:35.418Z,23.20
2018-04-06T11:17:03.642Z,23.20
2018-04-06T11:19:31.082Z,23.20
2018-04-06T11:21:58.564Z,23.20
2018-04-06T11:24:26.005Z,23.20
2018-04-06T11:26:53.454Z,23.20
2018-04-06T11:29:20.927Z,23.10
2018-04-06T11:31:48.457Z,23.10
2018-04-06T11:34:15.912Z,23.10
2018-04-06T11:36:43.344Z,23.10
2018-04-06T11:39:10.808Z,23.10
2018-04-06T11:41:38.372Z,23.10
2018-04-06T11:44:05.821Z,23.00
2018-04-06T11:46:33.259Z,23.10
2018-04-06T11:49:01.483Z,23.00
2018-04-06T11:51:28.947Z,23.00
2018-04-06T11:53:56.507Z,23.00
2018-04-06T11:56:24.074Z,23.00
2018-04-06T11:58:51.535Z,23.00
2018-04-06T12:01:18.977Z,23.00
2018-04-06T12:03:46.430Z,23.00
2018-04-06T12:06:13.927Z,23.00
2018-04-06T12:08:41.403Z,22.90
2018-04-06T12:11:08.845Z,23.00
2018-04-06T12:13:36.318Z,23.00
2018-04-06T12:16:03.759Z,22.90
2018-04-06T12:18:31.242Z,23.00
2018-04-06T12:20:58.711Z,23.00
2018-04-06T12:23:26.169Z,23.00
2018-04-06T12:25:53.634Z,23.00
2018-04-06T12:28:21.091Z,22.90
2018-04-06T12:30:48.551Z,22.90
2018-04-06T12:33:16.024Z,22.90
2018-04-06T12:35:43.480Z,22.80
2018-04-06T12:38:10.936Z,22.80
2018-04-06T12:40:38.369Z,22.80
2018-04-06T12:43:06.641Z,22.80
2018-04-06T12:45:34.154Z,22.70
2018-04-06T12:48:01.603Z,22.70
2018-04-06T12:50:29.099Z,22.70
2018-04-06T12:52:56.530Z,22.60
2018-04-06T12:55:23.987Z,22.60
2018-04-06T12:57:51.418Z,22.60
2018-04-06T13:00:19.652Z,22.50
2018-04-06T13:02:47.111Z,22.50
2018-04-06T13:05:14.586Z,22.60
2018-04-06T13:07:42.019Z,22.50
2018-04-06T13:10:09.495Z,22.50
2018-04-06T13:12:36.966Z,22.50
2018-04-06T13:15:04.531Z,22.50
2018-04-06T13:17:32.010Z,22.50
2018-04-06T13:19:59.431Z,22.50
2018-04-06T13:22:26.882Z,22.50
2018-04-06T13:24:55.091Z,22.60
2018-04-06T13:27:22.546Z,22.60
2018-04-06T13:29:49.999Z,22.70
2018-04-06T13:32:17.464Z,22.60
2018-04-06T13:34:44.929Z,22.60
2018-04-06T13:37:12.469Z,22.60
2018-04-06T13:39:40.798Z,22.60
2018-04-06T13:42:08.319Z,22.60
2018-04-06T13:44:36.546Z,22.60
2018-04-06T13:47:04.110Z,22.60
2018-04-06T13:49:31.578Z,22.60
2018-04-06T13:51:59.134Z,22.60
2018-04-06T13:54:26.611Z,22.60
2018-04-06T13:56:54.171Z,22.60
2018-04-06T13:59:21.635Z,22.60
2018-04-06T14:01:49.076Z,22.60
2018-04-06T14:04:16.533Z,22.60
2018-04-06T14:06:44.023Z,22.60
2018-04-06T14:09:11.467Z,22.60
2018-04-06T14:11:38.916Z,22.70
2018-04-06T14:14:07.346Z,22.90
2018-04-06T14:16:34.891Z,22.90
2018-04-06T14:19:02.335Z,23.00
2018-04-06T14:21:30.758Z,22.90
2018-04-06T14:23:58.313Z,22.80
2018-04-06T14:26:25.768Z,22.80
2018-04-06T14:28:53.219Z,22.80
2018-04-06T14:31:20.695Z,22.80
2018-04-06T14:33:48.878Z,22.70
2018-04-06T14:36:16.334Z,22.70
2018-04-06T14:38:43.802Z,22.60
2018-04-06T14:41:11.275Z,22.60
2018-04-06T14:43:38.747Z,22.50
2018-04-06T14:46:06.248Z,22.50
2018-04-06T14:48:33.639Z,22.50
